Time;durP1;ratioP1;P1;durP2;ratioP2;P2;SDS_P1;SDS_P2;PMS_P1;PMS_P2;Temp;Humidity;BMP_temperature;BMP_pressure;BME280_temperature;BME280_humidity;BME280_pressure;Samples;Min_cycle;Max_cycle;Signal;HPM_P1;HPM_P2
2023/06/27 00:01:31;;;;;;;5.13;2.47;;;;;;;25.05;35.96;100205.78;4863897;29;20048;-86
2023/06/27 00:04:00;;;;;;;5.30;1.70;;;;;;;25.02;36.11;100203.50;4878080;29;20489;-86
2023/06/27 00:06:27;;;;;;;3.55;1.63;;;;;;;25.02;36.26;100205.38;4877118;29;20096;-87
2023/06/27 00:08:54;;;;;;;3.45;1.73;;;;;;;25.00;35.99;100208.31;4866461;29;20052;-86
2023/06/27 00:11:21;;;;;;;3.13;2.30;;;;;;;24.96;36.34;100204.41;4875190;29;20040;-87
2023/06/27 00:13:48;;;;;;;4.68;1.80;;;;;;;24.98;36.53;100213.13;4889953;29;20061;-86
2023/06/27 00:16:17;;;;;;;2.78;1.80;;;;;;;24.93;36.69;100210.25;4893294;29;20049;-86
2023/06/27 00:18:50;;;;;;;4.80;1.90;;;;;;;24.90;36.77;100218.84;4892910;29;20135;-86
2023/06/27 00:21:17;;;;;;;6.07;2.08;;;;;;;24.79;37.92;100223.09;4891982;29;20036;-87
2023/06/27 00:23:44;;;;;;;7.80;2.17;;;;;;;24.71;38.48;100217.94;4898609;29;20193;-87
2023/06/27 00:26:13;;;;;;;2.00;1.50;;;;;;;24.66;39.11;100226.75;4874238;29;20072;-86
2023/06/27 00:28:40;;;;;;;1.60;1.50;;;;;;;24.67;38.94;100228.41;4867999;29;20468;-86
2023/06/27 00:31:07;;;;;;;2.97;1.80;;;;;;;24.66;38.87;100234.91;4864469;29;20062;-86
2023/06/27 00:33:34;;;;;;;5.00;1.75;;;;;;;24.59;38.85;100231.38;4869151;29;20049;-85
2023/06/27 00:36:01;;;;;;;4.43;1.90;;;;;;;24.56;38.20;100231.00;4860993;29;20057;-86
2023/06/27 00:38:27;;;;;;;3.13;1.80;;;;;;;24.50;38.71;100224.56;4874409;29;20507;-86
2023/06/27 00:40:56;;;;;;;3.10;1.83;;;;;;;24.54;38.36;100241.22;4876854;29;20429;-87
2023/06/27 00:43:27;;;;;;;3.90;1.98;;;;;;;24.48;38.45;100232.91;4892839;29;20056;-87
2023/06/27 00:45:55;;;;;;;5.32;1.70;;;;;;;24.47;38.27;100235.81;4877039;29;20048;-86
2023/06/27 00:48:22;;;;;;;3.55;1.90;;;;;;;24.45;38.66;100246.91;4860354;29;20053;-87
2023/06/27 00:50:52;;;;;;;3.97;1.73;;;;;;;24.39;38.81;100244.19;4894076;29;20617;-86
2023/06/27 00:53:18;;;;;;;5.80;1.63;;;;;;;24.38;38.76;100246.09;4878156;29;20108;-86
2023/06/27 00:55:45;;;;;;;3.65;1.92;;;;;;;24.36;39.84;100241.94;4887564;29;20052;-86
2023/06/27 00:58:12;;;;;;;4.55;2.10;;;;;;;24.35;40.47;100248.38;4861107;29;20681;-87
2023/06/27 01:00:39;;;;;;;3.90;2.28;;;;;;;24.30;39.92;100245.47;4898004;29;20832;-86
2023/06/27 01:03:07;;;;;;;4.38;2.00;;;;;;;24.22;39.52;100250.13;4859777;29;20037;-88
2023/06/27 01:05:35;;;;;;;2.13;1.70;;;;;;;24.21;39.41;100255.75;4888176;29;20045;-87
2023/06/27 01:08:06;;;;;;;5.40;2.40;;;;;;;24.15;39.53;100248.50;4864069;29;20045;-86
2023/06/27 01:10:46;;;;;;;2.92;1.67;;;;;;;24.08;39.16;100253.94;4875439;29;21011;-86
2023/06/27 01:13:23;;;;;;;2.67;1.80;;;;;;;24.09;40.50;100254.75;4859525;29;20386;-85
2023/06/27 01:15:50;;;;;;;3.88;1.90;;;;;;;24.13;39.32;100247.88;4890567;29;20141;-86
2023/06/27 01:18:20;;;;;;;5.07;1.60;;;;;;;24.11;39.50;100256.22;4870785;29;20055;-87
2023/06/27 01:20:46;;;;;;;4.13;1.73;;;;;;;24.11;39.46;100255.38;4898924;29;20048;-86
2023/06/27 01:23:22;;;;;;;4.38;2.22;;;;;;;23.94;40.38;100255.88;4871762;29;20057;-86
2023/06/27 01:25:53;;;;;;;2.08;1.88;;;;;;;24.02;40.34;100255.63;4872763;29;20053;-87
2023/06/27 01:28:21;;;;;;;5.03;1.90;;;;;;;23.99;40.16;100249.78;4890962;29;20051;-86
2023/06/27 01:30:47;;;;;;;8.10;1.77;;;;;;;23.95;39.63;100253.97;4891027;29;20103;-86
2023/06/27 01:33:28;;;;;;;4.13;1.80;;;;;;;23.77;41.34;100260.91;4896217;29;20429;-86
2023/06/27 01:36:04;;;;;;;2.95;1.98;;;;;;;23.76;41.54;100266.53;4880467;29;20073;-86
2023/06/27 01:38:51;;;;;;;4.13;2.03;;;;;;;23.66;42.12;100263.38;4886477;29;20111;-86
2023/06/27 01:41:20;;;;;;;4.55;1.80;;;;;;;23.79;41.64;100264.25;4877109;29;20501;-86
2023/06/27 01:43:47;;;;;;;2.70;1.85;;;;;;;23.80;41.86;100262.34;4877509;29;20230;-86
2023/06/27 01:46:14;;;;;;;3.17;1.95;;;;;;;23.76;41.74;100255.69;4906954;29;20488;-86
2023/06/27 01:48:42;;;;;;;4.18;1.60;;;;;;;23.77;41.96;100262.78;4883538;29;20060;-85
2023/06/27 01:51:09;;;;;;;3.28;1.73;;;;;;;23.72;41.61;100258.00;4861709;29;20051;-86
2023/06/27 01:53:36;;;;;;;2.35;1.52;;;;;;;23.75;40.94;100264.88;4874940;29;20124;-87
2023/06/27 01:56:05;;;;;;;3.92;2.05;;;;;;;23.69;41.00;100257.56;4879875;29;20509;-87
2023/06/27 01:58:32;;;;;;;7.03;1.85;;;;;;;23.68;41.31;100266.72;4852530;29;20123;-88
2023/06/27 02:00:59;;;;;;;4.40;1.80;;;;;;;23.62;40.91;100269.22;4881620;29;20109;-87
2023/06/27 02:03:26;;;;;;;2.92;1.70;;;;;;;23.61;41.31;100258.63;4864483;29;20041;-87
2023/06/27 02:05:53;;;;;;;4.57;1.67;;;;;;;23.55;41.33;100262.97;4882507;29;20041;-88
2023/06/27 02:08:21;;;;;;;4.75;1.77;;;;;;;23.52;41.42;100255.28;4876708;29;20673;-88
2023/06/27 02:10:47;;;;;;;4.63;2.70;;;;;;;23.49;41.44;100255.69;4855545;29;20060;-87
2023/06/27 02:13:14;;;;;;;7.13;1.70;;;;;;;23.46;41.08;100249.84;4886990;29;20045;-86
2023/06/27 02:15:41;;;;;;;3.63;1.65;;;;;;;23.41;40.65;100250.50;4887565;29;20044;-87
2023/06/27 02:18:08;;;;;;;5.47;1.80;;;;;;;23.41;40.79;100247.78;4888828;29;20405;-87
2023/06/27 02:20:35;;;;;;;4.10;1.58;;;;;;;23.40;41.32;100243.41;4856160;29;20060;-87
2023/06/27 02:23:02;;;;;;;6.63;1.80;;;;;;;23.38;41.44;100246.34;4892383;29;20051;-87
2023/06/27 02:25:29;;;;;;;3.55;1.75;;;;;;;23.31;41.18;100244.69;4895698;29;20135;-86
2023/06/27 02:27:56;;;;;;;3.13;1.80;;;;;;;23.28;42.41;100243.22;4874794;29;20052;-86
2023/06/27 02:30:22;;;;;;;3.90;1.88;;;;;;;23.27;42.93;100243.41;4862785;29;20151;-86
2023/06/27 02:32:50;;;;;;;4.05;1.80;;;;;;;23.23;43.33;100242.16;4895697;29;20048;-87
2023/06/27 02:35:17;;;;;;;3.67;1.92;;;;;;;23.21;43.39;100242.38;4881262;29;20052;-86
2023/06/27 02:37:47;;;;;;;5.53;2.10;;;;;;;23.17;43.68;100238.41;4874785;29;20620;-86
2023/06/27 02:40:14;;;;;;;4.78;2.35;;;;;;;23.11;43.92;100240.06;4891170;29;20040;-86
2023/06/27 02:42:41;;;;;;;4.82;2.13;;;;;;;23.01;43.77;100236.94;4868477;29;20067;-87
2023/06/27 02:45:08;;;;;;;4.82;2.33;;;;;;;23.03;44.15;100244.88;4874714;29;20040;-87
2023/06/27 02:47:35;;;;;;;4.88;1.85;;;;;;;22.97;44.37;100249.22;4872007;29;20076;-86
2023/06/27 02:50:02;;;;;;;3.17;1.73;;;;;;;22.94;43.94;100255.03;4873077;29;20048;-86
2023/06/27 02:52:30;;;;;;;2.83;1.63;;;;;;;22.89;43.74;100247.50;4887980;29;20061;-87
2023/06/27 02:54:57;;;;;;;3.05;1.75;;;;;;;22.86;43.81;100247.94;4860585;29;20104;-87
2023/06/27 02:57:24;;;;;;;4.00;2.25;;;;;;;22.86;43.28;100255.22;4853971;29;20500;-86
2023/06/27 02:59:51;;;;;;;4.57;2.95;;;;;;;22.75;44.04;100262.91;4876351;29;20083;-86
2023/06/27 03:02:18;;;;;;;4.55;2.00;;;;;;;22.73;44.63;100267.69;4839398;29;20055;-86
2023/06/27 03:04:47;;;;;;;4.32;1.90;;;;;;;22.69;45.87;100257.47;4888192;29;20048;-87
2023/06/27 03:07:14;;;;;;;2.67;1.80;;;;;;;22.71;45.67;100260.81;4881119;29;20052;-85
2023/06/27 03:09:41;;;;;;;8.90;2.72;;;;;;;22.69;45.76;100263.72;4871331;29;20051;-87
2023/06/27 03:12:08;;;;;;;3.28;2.10;;;;;;;22.66;45.76;100263.31;4871672;29;20127;-86
2023/06/27 03:14:36;;;;;;;5.38;2.17;;;;;;;22.55;45.58;100256.63;4856257;29;20596;-86
2023/06/27 03:17:04;;;;;;;3.80;1.90;;;;;;;22.58;45.67;100261.63;4883812;29;20123;-85
2023/06/27 03:19:31;;;;;;;4.13;2.28;;;;;;;22.53;45.90;100261.41;4872387;29;20052;-85
2023/06/27 03:22:12;;;;;;;3.30;1.80;;;;;;;22.47;45.63;100254.09;4885748;29;20060;-85
2023/06/27 03:24:38;;;;;;;2.72;1.88;;;;;;;22.49;45.58;100263.69;4865607;29;20052;-85
2023/06/27 03:27:05;;;;;;;3.42;2.65;;;;;;;22.48;45.13;100272.00;4862869;29;20551;-85
2023/06/27 03:29:36;;;;;;;6.25;2.63;;;;;;;22.49;45.28;100273.66;4874054;29;20052;-86
2023/06/27 03:32:04;;;;;;;7.38;2.53;;;;;;;22.48;45.63;100274.72;4855225;29;20044;-85
2023/06/27 03:34:31;;;;;;;6.30;2.58;;;;;;;22.46;45.49;100272.19;4886080;29;20140;-85
2023/06/27 03:36:58;;;;;;;3.85;2.20;;;;;;;22.44;45.71;100273.44;4875418;29;20812;-85
2023/06/27 03:39:25;;;;;;;4.25;1.80;;;;;;;22.41;45.74;100268.44;4886552;29;20057;-85
2023/06/27 03:41:52;;;;;;;3.55;1.65;;;;;;;22.36;45.80;100271.72;4869883;29;20099;-85
2023/06/27 03:44:20;;;;;;;3.90;2.17;;;;;;;22.38;45.61;100277.78;4886141;29;20056;-85
2023/06/27 03:46:47;;;;;;;3.53;2.05;;;;;;;22.33;45.65;100277.56;4886153;29;20379;-85
2023/06/27 03:49:15;;;;;;;3.30;1.77;;;;;;;22.33;45.61;100282.97;4884645;29;20052;-85
2023/06/27 03:51:42;;;;;;;4.57;1.75;;;;;;;22.35;45.35;100286.31;4857260;29;20076;-85
2023/06/27 03:54:09;;;;;;;6.53;2.15;;;;;;;22.25;45.48;100286.69;4877307;29;20475;-85
2023/06/27 03:56:36;;;;;;;2.58;2.10;;;;;;;22.32;45.00;100279.44;4855908;29;20412;-85
2023/06/27 03:59:03;;;;;;;4.20;1.75;;;;;;;22.33;45.33;100278.38;4874221;29;20051;-85
2023/06/27 04:01:30;;;;;;;5.72;2.20;;;;;;;22.36;45.49;100287.13;4877202;29;20069;-86
2023/06/27 04:03:57;;;;;;;5.32;2.70;;;;;;;22.40;45.40;100275.72;4858666;29;20045;-85
2023/06/27 04:06:23;;;;;;;4.25;2.30;;;;;;;22.50;45.40;100280.75;4884581;29;20401;-85
2023/06/27 04:08:50;;;;;;;4.10;2.03;;;;;;;22.55;45.23;100283.69;4873347;29;20576;-85
2023/06/27 04:11:17;;;;;;;3.42;1.85;;;;;;;22.54;45.23;100284.72;4876209;29;20585;-84
2023/06/27 04:13:46;;;;;;;5.32;2.10;;;;;;;22.50;45.55;100286.16;4872967;29;20137;-85
2023/06/27 04:16:13;;;;;;;3.00;1.88;;;;;;;22.49;45.68;100295.31;4878557;29;20092;-85
2023/06/27 04:18:40;;;;;;;3.13;1.80;;;;;;;22.45;45.48;100286.78;4876399;29;20095;-85
2023/06/27 04:21:08;;;;;;;3.53;2.20;;;;;;;22.44;45.86;100292.38;4881324;29;20069;-85
2023/06/27 04:23:35;;;;;;;4.13;2.03;;;;;;;22.38;46.45;100291.31;4876075;29;20051;-85
2023/06/27 04:26:07;;;;;;;5.10;2.38;;;;;;;22.39;47.42;100295.72;4888278;29;20096;-85
2023/06/27 04:28:36;;;;;;;3.13;1.95;;;;;;;22.48;46.97;100301.78;4839855;29;20059;-85
2023/06/27 04:31:03;;;;;;;3.65;1.85;;;;;;;22.44;46.94;100303.19;4888757;29;20140;-85
2023/06/27 04:33:30;;;;;;;6.32;2.28;;;;;;;22.46;47.04;100309.25;4872858;29;20052;-84
2023/06/27 04:36:00;;;;;;;4.85;1.92;;;;;;;22.47;47.03;100310.94;4882001;29;20548;-85
2023/06/27 04:38:29;;;;;;;2.13;1.75;;;;;;;22.48;46.57;100304.47;4874280;29;20456;-85
2023/06/27 04:40:56;;;;;;;4.80;2.20;;;;;;;22.48;46.51;100310.72;4872558;29;20123;-84
2023/06/27 04:43:26;;;;;;;5.35;2.20;;;;;;;22.57;46.04;100311.38;4861565;29;20048;-85
2023/06/27 04:45:53;;;;;;;4.13;2.20;;;;;;;22.58;45.12;100320.34;4885371;29;20139;-85
2023/06/27 04:48:20;;;;;;;4.88;2.13;;;;;;;22.59;46.57;100312.00;4886262;29;20056;-84
2023/06/27 04:50:46;;;;;;;5.93;2.67;;;;;;;22.65;46.88;100308.50;4879719;29;20386;-84
2023/06/27 04:53:13;;;;;;;14.07;2.97;;;;;;;22.64;47.42;100308.69;4875941;29;20044;-84
2023/06/27 04:55:40;;;;;;;3.30;2.20;;;;;;;22.69;47.45;100311.63;4883597;29;20056;-83
2023/06/27 04:58:07;;;;;;;4.25;2.15;;;;;;;22.69;47.57;100317.88;4862015;29;20045;-85
2023/06/27 05:00:34;;;;;;;9.90;2.83;;;;;;;22.65;47.40;100313.09;4871180;29;20053;-83
2023/06/27 05:03:00;;;;;;;8.90;3.17;;;;;;;22.63;46.38;100315.97;4852634;29;20041;-85
2023/06/27 05:05:32;;;;;;;4.20;2.40;;;;;;;22.57;45.21;100322.22;4879616;29;20080;-85
2023/06/27 05:08:03;;;;;;;4.65;2.72;;;;;;;22.52;45.92;100319.28;4857772;29;20044;-83
2023/06/27 05:10:30;;;;;;;5.32;2.45;;;;;;;22.57;45.74;100332.19;4866306;29;20057;-84
2023/06/27 05:12:58;;;;;;;7.63;2.35;;;;;;;22.53;45.42;100334.47;4885357;29;20045;-84
2023/06/27 05:15:25;;;;;;;6.47;2.60;;;;;;;22.41;45.51;100331.50;4857094;29;20048;-85
2023/06/27 05:17:53;;;;;;;8.40;2.83;;;;;;;22.45;45.27;100334.66;4866172;29;20052;-85
2023/06/27 05:20:22;;;;;;;7.00;2.78;;;;;;;22.47;45.49;100327.16;4883926;29;20053;-84
2023/06/27 05:22:49;;;;;;;5.05;2.88;;;;;;;22.47;45.11;100325.28;4868577;29;20123;-85
2023/06/27 05:25:16;;;;;;;4.97;2.78;;;;;;;22.52;45.29;100330.09;4886054;29;20049;-84
2023/06/27 05:27:43;;;;;;;7.18;2.65;;;;;;;22.59;44.86;100322.00;4883713;29;20048;-84
2023/06/27 05:30:10;;;;;;;9.35;2.97;;;;;;;22.60;44.78;100327.22;4858998;29;20139;-84
2023/06/27 05:32:37;;;;;;;7.25;2.45;;;;;;;22.70;44.48;100329.56;4867655;29;20151;-84
2023/06/27 05:35:04;;;;;;;5.38;2.80;;;;;;;22.69;44.81;100325.97;4883402;29;20520;-84
2023/06/27 05:37:31;;;;;;;4.28;2.10;;;;;;;22.74;44.65;100326.25;4887543;29;20052;-83
2023/06/27 05:39:57;;;;;;;6.57;2.60;;;;;;;22.73;44.56;100326.44;4860766;29;20044;-83
2023/06/27 05:42:24;;;;;;;8.50;2.85;;;;;;;22.80;44.56;100335.41;4877582;29;20063;-84
2023/06/27 05:44:51;;;;;;;8.75;2.95;;;;;;;22.80;44.49;100323.75;4891307;29;20394;-83
2023/06/27 05:47:18;;;;;;;8.27;2.83;;;;;;;22.81;44.55;100323.53;4869413;29;20548;-83
2023/06/27 05:49:44;;;;;;;7.10;2.50;;;;;;;22.81;44.74;100328.94;4869703;29;20063;-82
2023/06/27 05:52:11;;;;;;;6.88;2.60;;;;;;;22.86;44.98;100328.34;4876531;29;20048;-83
2023/06/27 05:54:38;;;;;;;8.90;2.97;;;;;;;22.89;44.79;100328.75;4880593;29;20480;-83
2023/06/27 05:57:05;;;;;;;5.05;2.08;;;;;;;22.93;44.70;100326.50;4886980;29;20057;-85
2023/06/27 05:59:32;;;;;;;7.57;2.30;;;;;;;22.96;44.74;100329.63;4854975;29;20048;-84
2023/06/27 06:01:58;;;;;;;8.35;2.65;;;;;;;22.93;44.66;100326.50;4872671;29;20505;-83
2023/06/27 06:04:25;;;;;;;8.90;2.63;;;;;;;22.89;44.95;100327.94;4874733;29;20083;-84
2023/06/27 06:06:52;;;;;;;5.90;2.53;;;;;;;22.91;44.91;100329.41;4879311;29;20459;-83
2023/06/27 06:09:19;;;;;;;5.88;2.80;;;;;;;22.97;44.97;100346.72;4864866;29;20048;-84
2023/06/27 06:11:46;;;;;;;8.38;2.75;;;;;;;22.93;44.72;100337.31;4860390;29;20044;-84
2023/06/27 06:14:12;;;;;;;6.28;2.42;;;;;;;22.90;44.85;100338.56;4885250;29;20047;-84
2023/06/27 06:16:39;;;;;;;9.30;2.90;;;;;;;22.90;44.87;100340.44;4869858;29;20195;-84
2023/06/27 06:19:07;;;;;;;3.90;2.30;;;;;;;22.87;44.89;100344.41;4879577;29;20687;-85
2023/06/27 06:21:34;;;;;;;13.98;3.20;;;;;;;22.87;44.51;100346.25;4876564;29;20052;-85
2023/06/27 06:24:02;;;;;;;5.00;2.53;;;;;;;22.91;44.58;100344.81;4860784;29;20052;-84
2023/06/27 06:26:28;;;;;;;9.07;2.60;;;;;;;22.94;44.37;100339.81;4870368;29;20048;-85
2023/06/27 06:28:55;;;;;;;5.85;2.55;;;;;;;22.94;44.29;100323.56;4893344;29;20052;-84
2023/06/27 06:31:24;;;;;;;7.47;2.55;;;;;;;22.96;44.11;100329.63;4857777;29;20499;-85
2023/06/27 06:33:51;;;;;;;5.35;2.05;;;;;;;23.04;44.10;100338.63;4874070;29;20104;-84
2023/06/27 06:36:18;;;;;;;7.07;2.10;;;;;;;23.01;44.34;100342.59;4852629;29;20071;-85
2023/06/27 06:38:45;;;;;;;3.75;1.95;;;;;;;23.08;44.17;100340.72;4885995;29;20052;-85
2023/06/27 06:41:13;;;;;;;3.25;2.05;;;;;;;23.15;43.43;100340.72;4842692;29;20048;-84
2023/06/27 06:43:39;;;;;;;3.95;1.88;;;;;;;23.09;42.93;100336.13;4883222;29;20659;-84
2023/06/27 06:46:06;;;;;;;4.47;2.38;;;;;;;23.12;42.53;100333.00;4869531;29;20508;-84
2023/06/27 06:48:33;;;;;;;4.60;1.90;;;;;;;23.07;42.00;100325.50;4887018;29;20055;-85
2023/06/27 06:51:00;;;;;;;3.83;1.88;;;;;;;23.04;41.81;100325.91;4884108;29;20411;-85
2023/06/27 06:53:26;;;;;;;3.65;1.70;;;;;;;23.04;41.87;100323.19;4882079;29;20049;-85
2023/06/27 06:55:53;;;;;;;3.40;1.70;;;;;;;23.08;41.43;100329.06;4858830;29;20791;-84
2023/06/27 06:58:20;;;;;;;3.03;1.48;;;;;;;23.10;41.36;100337.78;4873428;29;20497;-85
2023/06/27 07:00:47;;;;;;;2.85;1.98;;;;;;;23.11;41.81;100348.44;4871500;29;20072;-84
2023/06/27 07:03:13;;;;;;;3.42;1.50;;;;;;;23.16;41.93;100348.66;4877047;29;20048;-83
2023/06/27 07:05:41;;;;;;;3.95;1.55;;;;;;;23.13;41.19;100340.94;4873958;29;20131;-84
2023/06/27 07:08:09;;;;;;;3.25;1.70;;;;;;;23.05;41.80;100351.13;4871245;29;20048;-85
2023/06/27 07:10:36;;;;;;;3.85;1.90;;;;;;;22.97;41.72;100354.84;4888522;29;20505;-85
2023/06/27 07:13:04;;;;;;;3.35;1.98;;;;;;;22.92;41.98;100351.88;4878702;29;20049;-85
2023/06/27 07:15:32;;;;;;;3.78;1.70;;;;;;;22.98;41.92;100353.00;4887941;29;20073;-85
2023/06/27 07:17:59;;;;;;;3.90;1.75;;;;;;;23.01;41.96;100348.00;4880771;29;20449;-84
2023/06/27 07:20:25;;;;;;;5.50;1.98;;;;;;;23.09;41.89;100344.25;4887092;29;20104;-85
2023/06/27 07:22:52;;;;;;;4.57;1.88;;;;;;;23.09;41.84;100338.84;4893862;29;20111;-85
2023/06/27 07:25:19;;;;;;;6.10;1.95;;;;;;;23.12;41.36;100338.44;4874463;29;20041;-85
2023/06/27 07:27:46;;;;;;;2.58;1.70;;;;;;;23.16;41.34;100335.09;4870578;29;20044;-84
2023/06/27 07:30:13;;;;;;;4.80;1.77;;;;;;;23.17;40.83;100342.19;4874117;29;20040;-85
2023/06/27 07:32:40;;;;;;;6.55;1.42;;;;;;;23.11;40.49;100337.59;4875012;29;20139;-84
2023/06/27 07:35:07;;;;;;;4.32;1.77;;;;;;;23.14;40.79;100344.47;4857902;29;20070;-85
2023/06/27 07:37:34;;;;;;;3.70;2.17;;;;;;;23.17;41.01;100336.75;4854810;29;20123;-87
2023/06/27 07:40:02;;;;;;;7.80;1.80;;;;;;;23.25;40.57;100340.31;4872291;29;20048;-86
2023/06/27 07:42:29;;;;;;;3.28;1.85;;;;;;;23.31;40.80;100344.94;4855799;29;20999;-87
2023/06/27 07:44:56;;;;;;;4.97;2.00;;;;;;;23.34;41.05;100336.38;4858625;29;20476;-86
2023/06/27 07:47:22;;;;;;;4.43;1.80;;;;;;;23.36;41.60;100329.72;4854116;29;20053;-86
2023/06/27 07:49:49;;;;;;;2.58;1.48;;;;;;;23.38;40.90;100337.63;4882783;29;20053;-85
2023/06/27 07:52:16;;;;;;;3.28;1.83;;;;;;;23.38;39.96;100334.91;4877856;29;20599;-85
2023/06/27 07:54:43;;;;;;;2.65;1.55;;;;;;;23.34;40.04;100333.69;4882103;29;20406;-85
2023/06/27 07:57:10;;;;;;;2.38;1.45;;;;;;;23.34;39.78;100328.25;4872689;29;20059;-85
2023/06/27 07:59:36;;;;;;;5.93;1.80;;;;;;;23.25;39.81;100321.34;4873877;29;20049;-86
2023/06/27 08:02:03;;;;;;;3.60;1.30;;;;;;;23.24;39.75;100317.81;4892807;29;20044;-84
2023/06/27 08:04:32;;;;;;;5.43;1.70;;;;;;;23.25;39.95;100319.47;4858863;29;20135;-87
2023/06/27 08:06:58;;;;;;;3.00;1.30;;;;;;;23.32;39.98;100314.91;4889249;29;20049;-85
2023/06/27 08:09:25;;;;;;;3.25;2.00;;;;;;;23.38;39.70;100307.81;4875060;29;20409;-85
2023/06/27 08:11:52;;;;;;;3.97;1.67;;;;;;;23.43;40.22;100308.03;4893561;29;20803;-85
2023/06/27 08:14:19;;;;;;;4.18;1.55;;;;;;;23.52;40.23;100309.50;4891370;29;20051;-86
2023/06/27 08:16:46;;;;;;;3.53;1.90;;;;;;;23.57;40.32;100306.97;4884965;29;20377;-85
2023/06/27 08:19:13;;;;;;;6.55;1.88;;;;;;;23.61;40.03;100302.00;4893442;29;20132;-84
2023/06/27 08:21:39;;;;;;;8.43;2.05;;;;;;;23.64;40.17;100307.00;4889314;29;20480;-84
2023/06/27 08:24:06;;;;;;;5.18;1.83;;;;;;;23.69;40.40;100298.22;4886972;29;20073;-84
2023/06/27 08:26:33;;;;;;;5.43;2.20;;;;;;;23.70;39.29;100292.59;4876162;29;20076;-85
2023/06/27 08:29:00;;;;;;;5.75;2.20;;;;;;;23.69;39.36;100290.09;4858509;29;20060;-85
2023/06/27 08:31:26;;;;;;;4.03;1.65;;;;;;;23.71;39.35;100287.97;4889872;29;20052;-85
2023/06/27 08:33:53;;;;;;;3.97;1.80;;;;;;;23.74;39.25;100277.59;4876500;29;20803;-85
2023/06/27 08:36:20;;;;;;;6.97;1.92;;;;;;;23.81;39.57;100274.84;4858717;29;20060;-85
2023/06/27 08:38:47;;;;;;;3.13;1.48;;;;;;;23.86;39.27;100277.78;4869381;29;20131;-85
2023/06/27 08:41:15;;;;;;;5.68;1.65;;;;;;;23.93;38.87;100270.47;4863194;29;20100;-84
2023/06/27 08:43:42;;;;;;;3.10;1.60;;;;;;;23.93;38.68;100269.63;4873972;29;20053;-84
2023/06/27 08:46:09;;;;;;;4.20;2.05;;;;;;;23.92;38.23;100273.41;4871189;29;20041;-84
2023/06/27 08:48:41;;;;;;;3.92;1.92;;;;;;;23.90;37.96;100273.59;4893446;29;20044;-84
2023/06/27 08:51:11;;;;;;;2.97;1.60;;;;;;;23.86;38.06;100269.63;4874870;29;20045;-85
2023/06/27 08:53:44;;;;;;;3.45;1.98;;;;;;;23.89;38.63;100271.94;4873947;29;20504;-87
2023/06/27 08:56:14;;;;;;;3.92;1.95;;;;;;;23.94;38.04;100269.44;4862971;29;20059;-87
2023/06/27 08:58:51;;;;;;;3.42;1.60;;;;;;;23.93;38.65;100266.91;4885170;29;20052;-87
2023/06/27 09:01:18;;;;;;;2.47;1.70;;;;;;;24.00;38.73;100271.28;4873831;29;20047;-87
2023/06/27 09:03:45;;;;;;;4.13;1.92;;;;;;;24.04;38.91;100268.97;4885511;29;20052;-84
2023/06/27 09:06:14;;;;;;;4.10;1.67;;;;;;;24.09;38.70;100252.88;4885860;29;20165;-84
2023/06/27 09:08:41;;;;;;;3.05;2.05;;;;;;;24.13;39.18;100251.41;4887601;29;20131;-85
2023/06/27 09:11:09;;;;;;;6.38;1.80;;;;;;;24.17;38.65;100246.38;4872960;29;20119;-84
2023/06/27 09:13:37;;;;;;;5.78;1.85;;;;;;;24.17;38.80;100259.94;4878427;29;20052;-83
2023/06/27 09:16:07;;;;;;;4.07;1.60;;;;;;;24.09;38.34;100249.34;4891743;29;20132;-84
2023/06/27 09:18:36;;;;;;;4.63;1.92;;;;;;;24.04;38.46;100252.69;4891039;29;20046;-85
2023/06/27 09:21:03;;;;;;;4.40;1.70;;;;;;;24.08;38.49;100251.22;4884152;29;20049;-85
2023/06/27 09:23:30;;;;;;;2.58;1.60;;;;;;;24.13;38.83;100242.44;4872698;29;20052;-85
2023/06/27 09:26:07;;;;;;;6.47;1.75;;;;;;;24.12;38.17;100243.47;4895942;29;20055;-85
2023/06/27 09:28:44;;;;;;;4.82;1.75;;;;;;;24.13;38.03;100254.13;4865879;29;20050;-85
2023/06/27 09:31:15;;;;;;;3.40;1.70;;;;;;;24.24;38.49;100248.00;4863312;29;20054;-85
2023/06/27 09:33:43;;;;;;;3.50;1.90;;;;;;;24.28;38.50;100251.16;4859152;29;20104;-84
2023/06/27 09:36:29;;;;;;;2.45;1.52;;;;;;;24.25;37.81;100244.25;4893844;29;20135;-83
2023/06/27 09:39:03;;;;;;;2.50;1.50;;;;;;;24.37;37.72;100247.13;4871460;29;21637;-84
2023/06/27 09:41:45;;;;;;;2.97;1.65;;;;;;;24.19;37.12;100238.84;4869881;29;20052;-85
2023/06/27 09:44:15;;;;;;;4.55;1.88;;;;;;;24.31;37.46;100237.13;4864794;29;20053;-83
2023/06/27 09:46:46;;;;;;;3.40;1.42;;;;;;;24.27;37.54;100236.75;4880219;29;20132;-85
2023/06/27 09:49:14;;;;;;;2.65;1.55;;;;;;;24.29;37.87;100239.22;4883557;29;20052;-85
2023/06/27 09:51:45;;;;;;;3.40;1.60;;;;;;;24.34;37.90;100235.88;4870606;29;20055;-85
2023/06/27 09:54:13;;;;;;;4.70;1.63;;;;;;;24.44;37.62;100228.91;4874510;29;20057;-82
2023/06/27 09:56:48;;;;;;;2.83;1.40;;;;;;;24.48;37.58;100234.78;4862087;29;20076;-83
2023/06/27 09:59:16;;;;;;;3.20;1.70;;;;;;;24.51;36.59;100233.53;4868198;29;20055;-83
2023/06/27 10:02:03;;;;;;;3.67;2.00;;;;;;;24.46;37.05;100221.44;4862919;29;20092;-83
2023/06/27 10:04:31;;;;;;;4.57;1.73;;;;;;;24.44;37.41;100220.78;4884935;29;20843;-82
2023/06/27 10:07:08;;;;;;;3.33;1.88;;;;;;;24.45;37.42;100235.22;4885564;29;20074;-81
2023/06/27 10:09:38;;;;;;;2.83;1.83;;;;;;;24.42;37.21;100241.88;4884785;29;20056;-82
2023/06/27 10:12:07;;;;;;;8.70;1.98;;;;;;;24.38;37.28;100234.41;4875764;29;20101;-81
2023/06/27 10:14:34;;;;;;;4.13;1.60;;;;;;;24.32;37.25;100238.78;4862783;29;20584;-81
2023/06/27 10:17:02;;;;;;;3.95;1.85;;;;;;;24.26;36.92;100237.78;4885768;29;20056;-82
2023/06/27 10:19:34;;;;;;;3.40;1.98;;;;;;;24.11;37.18;100226.38;4886381;29;20044;-81
2023/06/27 10:22:01;;;;;;;2.45;1.80;;;;;;;24.11;37.48;100226.38;4881867;29;20047;-82
2023/06/27 10:24:29;;;;;;;5.30;1.75;;;;;;;24.10;37.50;100241.00;4883545;29;20166;-82
2023/06/27 10:26:56;;;;;;;3.95;2.05;;;;;;;24.10;37.35;100249.13;4881718;29;20052;-84
2023/06/27 10:29:30;;;;;;;4.07;1.85;;;;;;;23.99;37.20;100247.06;4861466;29;20517;-83
2023/06/27 10:31:57;;;;;;;5.22;1.90;;;;;;;23.97;37.31;100235.63;4866414;29;20135;-83
2023/06/27 10:34:24;;;;;;;5.38;1.52;;;;;;;23.92;37.41;100238.97;4879786;29;20048;-83
2023/06/27 10:36:58;;;;;;;5.70;1.70;;;;;;;23.95;37.68;100235.00;4885811;29;20160;-84
2023/06/27 10:39:34;;;;;;;4.72;1.73;;;;;;;23.94;38.21;100239.59;4880815;29;20493;-83
2023/06/27 10:42:02;;;;;;;5.03;1.80;;;;;;;24.00;38.38;100244.16;4875883;29;20098;-84
2023/06/27 10:44:29;;;;;;;2.40;1.63;;;;;;;24.07;37.90;100235.13;4868748;29;20108;-85
2023/06/27 10:47:16;;;;;;;4.28;1.75;;;;;;;23.95;37.71;100235.00;4868009;29;20758;-85
2023/06/27 10:49:46;;;;;;;2.30;1.77;;;;;;;24.01;37.87;100221.38;4861955;29;20139;-85
2023/06/27 10:52:20;;;;;;;4.63;1.75;;;;;;;24.09;37.99;100227.63;4868938;29;20089;-85
2023/06/27 10:55:15;;;;;;;5.88;2.05;;;;;;;24.08;37.81;100229.50;4884465;29;20040;-85
2023/06/27 10:57:43;;;;;;;7.10;1.92;;;;;;;24.26;37.83;100235.06;4890463;29;20052;-85
2023/06/27 11:00:25;;;;;;;1.88;1.67;;;;;;;24.22;36.94;100238.41;4885168;29;20048;-85
2023/06/27 11:02:56;;;;;;;4.30;1.77;;;;;;;24.36;36.96;100231.06;4852894;29;20207;-85
2023/06/27 11:05:46;;;;;;;4.57;2.00;;;;;;;24.08;35.43;100236.81;4887798;29;20045;-87
2023/06/27 11:08:15;;;;;;;2.58;1.88;;;;;;;24.24;36.25;100236.31;4887927;29;20136;-87
2023/06/27 11:10:50;;;;;;;4.78;1.92;;;;;;;24.32;36.94;100227.09;4844447;29;20053;-88
2023/06/27 11:13:22;;;;;;;4.07;1.65;;;;;;;24.43;37.00;100237.31;4872450;29;20049;-89
2023/06/27 11:15:53;;;;;;;5.82;2.08;;;;;;;24.52;36.85;100229.75;4838280;29;20442;-90
2023/06/27 11:18:27;;;;;;;3.47;1.80;;;;;;;24.53;35.98;100223.28;4868178;29;20049;-90
2023/06/27 11:20:55;;;;;;;3.45;2.50;;;;;;;24.54;36.06;100222.22;4868166;29;20136;-90
2023/06/27 11:23:23;;;;;;;5.32;2.53;;;;;;;24.44;35.58;100211.81;4832896;29;1109689;-88
2023/06/27 11:25:52;;;;;;;7.57;2.10;;;;;;;24.32;35.55;100198.06;4867688;29;20542;-89
2023/06/27 11:28:21;;;;;;;4.65;1.90;;;;;;;24.40;36.59;100219.56;4887493;29;20052;-90
2023/06/27 11:30:49;;;;;;;5.30;2.10;;;;;;;24.34;36.18;100208.72;4864179;29;20119;-88